sensor_id;sensor_type;location;lat;lon;timestamp;pressure;altitude;pressure_sealevel;temperature;humidity
6938;BME280;40040;42.706;23.372;2022-11-06T00:00:54;147397.25;;;13.08;100.00
6938;BME280;40040;42.706;23.372;2022-11-06T00:03:23;147419.50;;;13.17;100.00
6938;BME280;40040;42.706;23.372;2022-11-06T00:05:50;147414.56;;;13.15;100.00
6938;BME280;40040;42.706;23.372;2022-11-06T00:08:36;147412.09;;;13.14;100.00
6938;BME280;40040;42.706;23.372;2022-11-06T00:11:08;147414.56;;;13.15;100.00
6938;BME280;40040;42.706;23.372;2022-11-06T00:13:35;147346.53;;;12.88;100.00
6938;BME280;40040;42.706;23.372;2022-11-06T00:16:03;147417.00;;;13.16;100.00
6938;BME280;40040;42.706;23.372;2022-11-06T00:18:32;147344.03;;;12.87;100.00
6938;BME280;40040;42.706;23.372;2022-11-06T00:21:05;147388.59;;;13.05;100.00
6938;BME280;40040;42.706;23.372;2022-11-06T00:23:32;147345.28;;;12.87;100.00
6938;BME280;40040;42.706;23.372;2022-11-06T00:25:59;147441.75;;;13.26;100.00
6938;BME280;40040;42.706;23.372;2022-11-06T00:28:26;147347.78;;;12.88;100.00
6938;BME280;40040;42.706;23.372;2022-11-06T00:31:00;147327.97;;;12.80;100.00
6938;BME280;40040;42.706;23.372;2022-11-06T00:33:27;147410.84;;;13.14;100.00
6938;BME280;40040;42.706;23.372;2022-11-06T00:35:55;147323.03;;;12.78;100.00
6938;BME280;40040;42.706;23.372;2022-11-06T00:38:22;147361.34;;;12.94;100.00
6938;BME280;40040;42.706;23.372;2022-11-06T00:40:49;147266.22;;;12.55;100.00
6938;BME280;40040;42.706;23.372;2022-11-06T00:43:16;147369.97;;;12.97;100.00
6938;BME280;40040;42.706;23.372;2022-11-06T00:45:42;147365.06;;;12.95;100.00
6938;BME280;40040;42.706;23.372;2022-11-06T00:48:09;147237.75;;;12.43;100.00
6938;BME280;40040;42.706;23.372;2022-11-06T00:50:36;147352.69;;;12.90;100.00
6938;BME280;40040;42.706;23.372;2022-11-06T00:53:04;147305.72;;;12.71;100.00
6938;BME280;40040;42.706;23.372;2022-11-06T00:55:31;147283.50;;;12.62;100.00
6938;BME280;40040;42.706;23.372;2022-11-06T00:57:58;147355.19;;;12.91;100.00
6938;BME280;40040;42.706;23.372;2022-11-06T01:00:25;147335.38;;;12.83;100.00
6938;BME280;40040;42.706;23.372;2022-11-06T01:02:52;147326.72;;;12.80;100.00
6938;BME280;40040;42.706;23.372;2022-11-06T01:05:21;147267.41;;;12.56;100.00
6938;BME280;40040;42.706;23.372;2022-11-06T01:07:48;147304.50;;;12.71;100.00
6938;BME280;40040;42.706;23.372;2022-11-06T01:10:17;147295.88;;;12.67;100.00
6938;BME280;40040;42.706;23.372;2022-11-06T01:12:44;147258.75;;;12.52;100.00
6938;BME280;40040;42.706;23.372;2022-11-06T01:15:11;147313.16;;;12.74;100.00
6938;BME280;40040;42.706;23.372;2022-11-06T01:17:38;147281.00;;;12.61;100.00
6938;BME280;40040;42.706;23.372;2022-11-06T01:20:06;147314.38;;;12.75;100.00
6938;BME280;40040;42.706;23.372;2022-11-06T01:22:33;147311.91;;;12.74;100.00
6938;BME280;40040;42.706;23.372;2022-11-06T01:25:00;147308.22;;;12.72;100.00
6938;BME280;40040;42.706;23.372;2022-11-06T01:27:28;147295.88;;;12.67;100.00
6938;BME280;40040;42.706;23.372;2022-11-06T01:29:56;147277.31;;;12.60;100.00
6938;BME280;40040;42.706;23.372;2022-11-06T01:32:23;147271.13;;;12.57;100.00
6938;BME280;40040;42.706;23.372;2022-11-06T01:34:50;147246.41;;;12.47;100.00
6938;BME280;40040;42.706;23.372;2022-11-06T01:37:17;147205.66;;;12.30;100.00
6938;BME280;40040;42.706;23.372;2022-11-06T01:39:43;147215.50;;;12.34;100.00
6938;BME280;40040;42.706;23.372;2022-11-06T01:42:12;147129.09;;;11.99;100.00
6938;BME280;40040;42.706;23.372;2022-11-06T01:45:23;147179.72;;;12.20;100.00
6938;BME280;40040;42.706;23.372;2022-11-06T01:47:51;147184.66;;;12.22;100.00
6938;BME280;40040;42.706;23.372;2022-11-06T01:50:18;147201.97;;;12.29;100.00
6938;BME280;40040;42.706;23.372;2022-11-06T01:52:48;147195.78;;;12.26;100.00
6938;BME280;40040;42.706;23.372;2022-11-06T01:55:20;147189.56;;;12.24;100.00
6938;BME280;40040;42.706;23.372;2022-11-06T01:57:49;147178.47;;;12.19;100.00
6938;BME280;40040;42.706;23.372;2022-11-06T02:00:17;147206.88;;;12.31;100.00
6938;BME280;40040;42.706;23.372;2022-11-06T02:02:47;147198.22;;;12.27;100.00
6938;BME280;40040;42.706;23.372;2022-11-06T02:05:15;147185.88;;;12.22;100.00
6938;BME280;40040;42.706;23.372;2022-11-06T02:07:43;147046.34;;;11.66;100.00
6938;BME280;40040;42.706;23.372;2022-11-06T02:10:10;147221.72;;;12.37;100.00
6938;BME280;40040;42.706;23.372;2022-11-06T02:12:47;147230.38;;;12.40;100.00
6938;BME280;40040;42.706;23.372;2022-11-06T02:15:24;147246.41;;;12.47;100.00
6938;BME280;40040;42.706;23.372;2022-11-06T02:18:08;147229.13;;;12.40;100.00
6938;BME280;40040;42.706;23.372;2022-11-06T02:20:48;147263.72;;;12.54;100.00
6938;BME280;40040;42.706;23.372;2022-11-06T02:23:36;147258.75;;;12.52;100.00
6938;BME280;40040;42.706;23.372;2022-11-06T02:26:20;147274.88;;;12.59;100.00
6938;BME280;40040;42.706;23.372;2022-11-06T02:28:54;147308.22;;;12.72;100.00
6938;BME280;40040;42.706;23.372;2022-11-06T02:31:25;147169.81;;;12.16;100.00
6938;BME280;40040;42.706;23.372;2022-11-06T02:33:54;147318.06;;;12.76;100.00
6938;BME280;40040;42.706;23.372;2022-11-06T02:36:28;147323.03;;;12.78;100.00
6938;BME280;40040;42.706;23.372;2022-11-06T02:38:57;147332.91;;;12.82;100.00
6938;BME280;40040;42.706;23.372;2022-11-06T02:41:30;147331.66;;;12.82;100.00
6938;BME280;40040;42.706;23.372;2022-11-06T02:44:02;147271.13;;;12.57;100.00
6938;BME280;40040;42.706;23.372;2022-11-06T02:46:33;147303.25;;;12.70;100.00
6938;BME280;40040;42.706;23.372;2022-11-06T02:49:05;147290.91;;;12.65;100.00
6938;BME280;40040;42.706;23.372;2022-11-06T02:51:36;147179.72;;;12.20;100.00
6938;BME280;40040;42.706;23.372;2022-11-06T02:54:04;147283.50;;;12.62;100.00
6938;BME280;40040;42.706;23.372;2022-11-06T02:56:35;147150.09;;;12.08;100.00
6938;BME280;40040;42.706;23.372;2022-11-06T02:59:08;147276.06;;;12.59;100.00
6938;BME280;40040;42.706;23.372;2022-11-06T03:01:38;147264.97;;;12.55;100.00
6938;BME280;40040;42.706;23.372;2022-11-06T03:04:11;147253.81;;;12.50;100.00
6938;BME280;40040;42.706;23.372;2022-11-06T03:06:44;147243.97;;;12.46;100.00
6938;BME280;40040;42.706;23.372;2022-11-06T03:09:15;147255.06;;;12.51;100.00
6938;BME280;40040;42.706;23.372;2022-11-06T03:11:49;147169.81;;;12.16;100.00
6938;BME280;40040;42.706;23.372;2022-11-06T03:14:26;147214.31;;;12.34;100.00
6938;BME280;40040;42.706;23.372;2022-11-06T03:16:57;147180.94;;;12.20;100.00
6938;BME280;40040;42.706;23.372;2022-11-06T03:19:27;147199.47;;;12.28;100.00
6938;BME280;40040;42.706;23.372;2022-11-06T03:22:02;147197.03;;;12.27;100.00
6938;BME280;40040;42.706;23.372;2022-11-06T03:24:35;147184.66;;;12.22;100.00
6938;BME280;40040;42.706;23.372;2022-11-06T03:27:11;147110.53;;;11.92;100.00
6938;BME280;40040;42.706;23.372;2022-11-06T03:29:44;147179.72;;;12.20;100.00
6938;BME280;40040;42.706;23.372;2022-11-06T03:32:16;147122.88;;;11.97;100.00
6938;BME280;40040;42.706;23.372;2022-11-06T03:34:50;147087.06;;;11.82;100.00
6938;BME280;40040;42.706;23.372;2022-11-06T03:37:25;147029.00;;;11.59;100.00
6938;BME280;40040;42.706;23.372;2022-11-06T03:39:55;147131.53;;;12.00;100.00
6938;BME280;40040;42.706;23.372;2022-11-06T03:42:25;147140.19;;;12.04;100.00
6938;BME280;40040;42.706;23.372;2022-11-06T03:44:57;147008.00;;;11.50;100.00
6938;BME280;40040;42.706;23.372;2022-11-06T03:47:28;146995.66;;;11.45;100.00
6938;BME280;40040;42.706;23.372;2022-11-06T03:50:02;147111.78;;;11.92;100.00
6938;BME280;40040;42.706;23.372;2022-11-06T03:52:33;147093.25;;;11.85;100.00
6938;BME280;40040;42.706;23.372;2022-11-06T03:55:05;147073.50;;;11.77;100.00
6938;BME280;40040;42.706;23.372;2022-11-06T03:57:38;147075.97;;;11.78;100.00
6938;BME280;40040;42.706;23.372;2022-11-06T04:00:09;147074.72;;;11.77;100.00
6938;BME280;40040;42.706;23.372;2022-11-06T04:02:39;147083.34;;;11.81;100.00
6938;BME280;40040;42.706;23.372;2022-11-06T04:05:11;147085.84;;;11.82;100.00
6938;BME280;40040;42.706;23.372;2022-11-06T04:07:44;147095.69;;;11.86;100.00
6938;BME280;40040;42.706;23.372;2022-11-06T04:10:33;147092.00;;;11.84;100.00
6938;BME280;40040;42.706;23.372;2022-11-06T04:13:20;147024.06;;;11.57;100.00
6938;BME280;40040;42.706;23.372;2022-11-06T04:16:08;147130.28;;;12.00;100.00
6938;BME280;40040;42.706;23.372;2022-11-06T04:18:36;147132.78;;;12.01;100.00
6938;BME280;40040;42.706;23.372;2022-11-06T04:21:11;147140.19;;;12.04;100.00
6938;BME280;40040;42.706;23.372;2022-11-06T04:23:57;147145.13;;;12.06;100.00
6938;BME280;40040;42.706;23.372;2022-11-06T04:26:52;147132.78;;;12.01;100.00
6938;BME280;40040;42.706;23.372;2022-11-06T04:29:30;147161.19;;;12.12;100.00
6938;BME280;40040;42.706;23.372;2022-11-06T04:32:06;147167.38;;;12.15;100.00
6938;BME280;40040;42.706;23.372;2022-11-06T04:34:41;147174.78;;;12.18;100.00
6938;BME280;40040;42.706;23.372;2022-11-06T04:37:12;147110.53;;;11.92;100.00
6938;BME280;40040;42.706;23.372;2022-11-06T04:39:50;147180.94;;;12.20;100.00
6938;BME280;40040;42.706;23.372;2022-11-06T04:42:27;147192.06;;;12.25;100.00
6938;BME280;40040;42.706;23.372;2022-11-06T04:44:59;147188.38;;;12.23;100.00
6938;BME280;40040;42.706;23.372;2022-11-06T04:47:30;147189.56;;;12.24;100.00
6938;BME280;40040;42.706;23.372;2022-11-06T04:49:58;147159.94;;;12.12;100.00
6938;BME280;40040;42.706;23.372;2022-11-06T04:52:28;147185.88;;;12.22;100.00
6938;BME280;40040;42.706;23.372;2022-11-06T04:54:56;147194.53;;;12.26;100.00
6938;BME280;40040;42.706;23.372;2022-11-06T04:57:24;147145.13;;;12.06;100.00
6938;BME280;40040;42.706;23.372;2022-11-06T04:59:52;147115.50;;;11.94;100.00
6938;BME280;40040;42.706;23.372;2022-11-06T05:02:21;147204.41;;;12.30;100.00
6938;BME280;40040;42.706;23.372;2022-11-06T05:04:49;147204.41;;;12.30;100.00
6938;BME280;40040;42.706;23.372;2022-11-06T05:07:16;147224.16;;;12.38;100.00
6938;BME280;40040;42.706;23.372;2022-11-06T05:09:43;147210.63;;;12.32;100.00
6938;BME280;40040;42.706;23.372;2022-11-06T05:12:11;147210.63;;;12.32;100.00
6938;BME280;40040;42.706;23.372;2022-11-06T05:14:37;147218.00;;;12.35;100.00
6938;BME280;40040;42.706;23.372;2022-11-06T05:17:04;147201.97;;;12.29;100.00
6938;BME280;40040;42.706;23.372;2022-11-06T05:19:31;147115.50;;;11.94;100.00
6938;BME280;40040;42.706;23.372;2022-11-06T05:22:00;147229.13;;;12.40;100.00
6938;BME280;40040;42.706;23.372;2022-11-06T05:24:44;147219.25;;;12.36;100.00
6938;BME280;40040;42.706;23.372;2022-11-06T05:27:11;147184.66;;;12.22;100.00
6938;BME280;40040;42.706;23.372;2022-11-06T05:29:37;147221.72;;;12.37;100.00
6938;BME280;40040;42.706;23.372;2022-11-06T05:32:04;147221.72;;;12.37;100.00
6938;BME280;40040;42.706;23.372;2022-11-06T05:34:31;147231.63;;;12.41;100.00
6938;BME280;40040;42.706;23.372;2022-11-06T05:36:59;147234.06;;;12.42;100.00
6938;BME280;40040;42.706;23.372;2022-11-06T05:39:26;147230.38;;;12.40;100.00
6938;BME280;40040;42.706;23.372;2022-11-06T05:41:53;147211.81;;;12.33;100.00
6938;BME280;40040;42.706;23.372;2022-11-06T05:44:20;147216.75;;;12.35;100.00
6938;BME280;40040;42.706;23.372;2022-11-06T05:46:47;147192.06;;;12.25;100.00
6938;BME280;40040;42.706;23.372;2022-11-06T05:49:13;147234.06;;;12.42;100.00
6938;BME280;40040;42.706;23.372;2022-11-06T05:51:40;147229.13;;;12.40;100.00
6938;BME280;40040;42.706;23.372;2022-11-06T05:54:09;147214.31;;;12.34;100.00
6938;BME280;40040;42.706;23.372;2022-11-06T05:56:35;147231.63;;;12.41;100.00
6938;BME280;40040;42.706;23.372;2022-11-06T05:59:02;147248.91;;;12.48;100.00
6938;BME280;40040;42.706;23.372;2022-11-06T06:01:29;147269.91;;;12.57;100.00
6938;BME280;40040;42.706;23.372;2022-11-06T06:03:56;147293.38;;;12.66;100.00
6938;BME280;40040;42.706;23.372;2022-11-06T06:06:23;147253.81;;;12.50;100.00
6938;BME280;40040;42.706;23.372;2022-11-06T06:08:50;147308.22;;;12.72;100.00
6938;BME280;40040;42.706;23.372;2022-11-06T06:11:18;147335.38;;;12.83;100.00
6938;BME280;40040;42.706;23.372;2022-11-06T06:13:45;147355.19;;;12.91;100.00
6938;BME280;40040;42.706;23.372;2022-11-06T06:16:12;147365.06;;;12.95;100.00
6938;BME280;40040;42.706;23.372;2022-11-06T06:18:40;147382.38;;;13.02;100.00
6938;BME280;40040;42.706;23.372;2022-11-06T06:21:07;147394.78;;;13.07;100.00
6938;BME280;40040;42.706;23.372;2022-11-06T06:23:33;147397.25;;;13.08;100.00
6938;BME280;40040;42.706;23.372;2022-11-06T06:26:00;147409.59;;;13.13;100.00
6938;BME280;40040;42.706;23.372;2022-11-06T06:28:28;147423.19;;;13.19;100.00
6938;BME280;40040;42.706;23.372;2022-11-06T06:30:56;147431.84;;;13.22;100.00
6938;BME280;40040;42.706;23.372;2022-11-06T06:33:23;147431.84;;;13.22;100.00
6938;BME280;40040;42.706;23.372;2022-11-06T06:35:50;147441.75;;;13.26;100.00
6938;BME280;40040;42.706;23.372;2022-11-06T06:38:16;147449.16;;;13.29;100.00
6938;BME280;40040;42.706;23.372;2022-11-06T06:40:43;147454.13;;;13.31;100.00
6938;BME280;40040;42.706;23.372;2022-11-06T06:43:10;147452.88;;;13.31;100.00
6938;BME280;40040;42.706;23.372;2022-11-06T06:45:38;147449.16;;;13.29;100.00
6938;BME280;40040;42.706;23.372;2022-11-06T06:48:06;147457.81;;;13.33;100.00
6938;BME280;40040;42.706;23.372;2022-11-06T06:50:33;147483.78;;;13.43;100.00
6938;BME280;40040;42.706;23.372;2022-11-06T06:53:00;147477.59;;;13.41;100.00
6938;BME280;40040;42.706;23.372;2022-11-06T06:55:27;147481.28;;;13.42;100.00
6938;BME280;40040;42.706;23.372;2022-11-06T06:57:57;147491.19;;;13.46;100.00
6938;BME280;40040;42.706;23.372;2022-11-06T07:00:24;147497.41;;;13.49;100.00
6938;BME280;40040;42.706;23.372;2022-11-06T07:02:52;147506.06;;;13.52;100.00
6938;BME280;40040;42.706;23.372;2022-11-06T07:05:19;147509.75;;;13.54;100.00
6938;BME280;40040;42.706;23.372;2022-11-06T07:07:46;147527.06;;;13.61;100.00
6938;BME280;40040;42.706;23.372;2022-11-06T07:10:13;147532.03;;;13.63;100.00
6938;BME280;40040;42.706;23.372;2022-11-06T07:12:40;147460.28;;;13.34;100.00
6938;BME280;40040;42.706;23.372;2022-11-06T07:15:08;147529.53;;;13.62;100.00
6938;BME280;40040;42.706;23.372;2022-11-06T07:17:34;147540.69;;;13.67;100.00
6938;BME280;40040;42.706;23.372;2022-11-06T07:20:04;147520.88;;;13.58;100.00
6938;BME280;40040;42.706;23.372;2022-11-06T07:22:31;147502.34;;;13.51;100.00
6938;BME280;40040;42.706;23.372;2022-11-06T07:24:58;147572.81;;;13.80;100.00
6938;BME280;40040;42.706;23.372;2022-11-06T07:27:24;147600.03;;;13.91;100.00
6938;BME280;40040;42.706;23.372;2022-11-06T07:29:51;147611.16;;;13.95;100.00
6938;BME280;40040;42.706;23.372;2022-11-06T07:32:18;147606.19;;;13.93;100.00
6938;BME280;40040;42.706;23.372;2022-11-06T07:34:45;147639.63;;;14.07;100.00
6938;BME280;40040;42.706;23.372;2022-11-06T07:37:13;147649.50;;;14.11;100.00
6938;BME280;40040;42.706;23.372;2022-11-06T07:39:40;147562.91;;;13.76;100.00
6938;BME280;40040;42.706;23.372;2022-11-06T07:42:07;147656.97;;;14.14;100.00
6938;BME280;40040;42.706;23.372;2022-11-06T07:44:33;147659.41;;;14.15;100.00
6938;BME280;40040;42.706;23.372;2022-11-06T07:47:00;147661.88;;;14.16;100.00
6938;BME280;40040;42.706;23.372;2022-11-06T07:49:27;147673.03;;;14.20;100.00
6938;BME280;40040;42.706;23.372;2022-11-06T07:51:54;147682.91;;;14.24;100.00
6938;BME280;40040;42.706;23.372;2022-11-06T07:54:22;147697.81;;;14.30;100.00
6938;BME280;40040;42.706;23.372;2022-11-06T07:56:49;147689.16;;;14.27;100.00
6938;BME280;40040;42.706;23.372;2022-11-06T07:59:16;147686.69;;;14.26;100.00
6938;BME280;40040;42.706;23.372;2022-11-06T08:01:43;147694.09;;;14.29;100.00
6938;BME280;40040;42.706;23.372;2022-11-06T08:04:10;147694.09;;;14.29;100.00
6938;BME280;40040;42.706;23.372;2022-11-06T08:06:37;147696.56;;;14.30;100.00
6938;BME280;40040;42.706;23.372;2022-11-06T08:09:05;147708.94;;;14.35;100.00
6938;BME280;40040;42.706;23.372;2022-11-06T08:11:34;147654.47;;;14.13;100.00
6938;BME280;40040;42.706;23.372;2022-11-06T08:14:00;147685.41;;;14.25;100.00
6938;BME280;40040;42.706;23.372;2022-11-06T08:16:27;147671.78;;;14.20;100.00
6938;BME280;40040;42.706;23.372;2022-11-06T08:18:54;147656.97;;;14.14;100.00
6938;BME280;40040;42.706;23.372;2022-11-06T08:21:21;147645.78;;;14.09;100.00
6938;BME280;40040;42.706;23.372;2022-11-06T08:23:48;147564.16;;;13.76;100.00
6938;BME280;40040;42.706;23.372;2022-11-06T08:26:15;147605.00;;;13.93;100.00
6938;BME280;40040;42.706;23.372;2022-11-06T08:28:44;147664.38;;;14.17;100.00
6938;BME280;40040;42.706;23.372;2022-11-06T08:31:11;147613.66;;;13.96;100.00
6938;BME280;40040;42.706;23.372;2022-11-06T08:33:39;147579.03;;;13.82;100.00
6938;BME280;40040;42.706;23.372;2022-11-06T08:36:07;147629.72;;;14.03;100.00
6938;BME280;40040;42.706;23.372;2022-11-06T08:38:35;147559.19;;;13.74;100.00
6938;BME280;40040;42.706;23.372;2022-11-06T08:41:05;147624.78;;;14.01;100.00
6938;BME280;40040;42.706;23.372;2022-11-06T08:43:33;147611.16;;;13.95;100.00
6938;BME280;40040;42.706;23.372;2022-11-06T08:46:02;147548.09;;;13.70;100.00
6938;BME280;40040;42.706;23.372;2022-11-06T08:48:29;147600.03;;;13.91;100.00
6938;BME280;40040;42.706;23.372;2022-11-06T08:50:55;147591.38;;;13.87;100.00
6938;BME280;40040;42.706;23.372;2022-11-06T08:53:22;147502.34;;;13.51;100.00
6938;BME280;40040;42.706;23.372;2022-11-06T08:55:49;147476.38;;;13.40;100.00
6938;BME280;40040;42.706;23.372;2022-11-06T08:58:16;147561.72;;;13.75;100.00
6938;BME280;40040;42.706;23.372;2022-11-06T09:00:43;147577.78;;;13.82;100.00
6938;BME280;40040;42.706;23.372;2022-11-06T09:03:13;147575.31;;;13.81;100.00
6938;BME280;40040;42.706;23.372;2022-11-06T09:05:40;147503.56;;;13.51;100.00
6938;BME280;40040;42.706;23.372;2022-11-06T09:08:10;147596.34;;;13.89;100.00
6938;BME280;40040;42.706;23.372;2022-11-06T09:10:38;147488.75;;;13.45;100.00
6938;BME280;40040;42.706;23.372;2022-11-06T09:13:05;147525.81;;;13.61;100.00
6938;BME280;40040;42.706;23.372;2022-11-06T09:15:32;147609.91;;;13.95;100.00
6938;BME280;40040;42.706;23.372;2022-11-06T09:17:59;147600.03;;;13.91;100.00
6938;BME280;40040;42.706;23.372;2022-11-06T09:20:27;147519.66;;;13.58;100.00
6938;BME280;40040;42.706;23.372;2022-11-06T09:22:59;147590.13;;;13.87;100.00
6938;BME280;40040;42.706;23.372;2022-11-06T09:25:27;147477.59;;;13.41;100.00
6938;BME280;40040;42.706;23.372;2022-11-06T09:27:54;147538.19;;;13.66;100.00
6938;BME280;40040;42.706;23.372;2022-11-06T09:30:22;147512.22;;;13.55;100.00
6938;BME280;40040;42.706;23.372;2022-11-06T09:32:51;147612.41;;;13.96;100.00
6938;BME280;40040;42.706;23.372;2022-11-06T09:35:18;147460.28;;;13.34;100.00
6938;BME280;40040;42.706;23.372;2022-11-06T09:37:47;147609.91;;;13.95;100.00
6938;BME280;40040;42.706;23.372;2022-11-06T09:40:19;147624.78;;;14.01;100.00
6938;BME280;40040;42.706;23.372;2022-11-06T09:42:58;147600.03;;;13.91;100.00
6938;BME280;40040;42.706;23.372;2022-11-06T09:45:29;147616.09;;;13.97;100.00
6938;BME280;40040;42.706;23.372;2022-11-06T09:48:03;147529.53;;;13.62;100.00
6938;BME280;40040;42.706;23.372;2022-11-06T09:50:34;147592.63;;;13.88;100.00
6938;BME280;40040;42.706;23.372;2022-11-06T09:53:09;147602.50;;;13.92;100.00
6938;BME280;40040;42.706;23.372;2022-11-06T09:55:41;147518.41;;;13.57;100.00
6938;BME280;40040;42.706;23.372;2022-11-06T09:58:12;147605.00;;;13.93;100.00
6938;BME280;40040;42.706;23.372;2022-11-06T10:00:40;147511.00;;;13.54;100.00
6938;BME280;40040;42.706;23.372;2022-11-06T10:03:13;147567.88;;;13.78;100.00
6938;BME280;40040;42.706;23.372;2022-11-06T10:05:44;147570.38;;;13.79;100.00
6938;BME280;40040;42.706;23.372;2022-11-06T10:08:16;147493.69;;;13.47;100.00
6938;BME280;40040;42.706;23.372;2022-11-06T10:10:53;147609.91;;;13.95;100.00
6938;BME280;40040;42.706;23.372;2022-11-06T10:13:42;147577.78;;;13.82;100.00
6938;BME280;40040;42.706;23.372;2022-11-06T10:16:21;147574.06;;;13.80;100.00
6938;BME280;40040;42.706;23.372;2022-11-06T10:19:01;147611.16;;;13.95;100.00
6938;BME280;40040;42.706;23.372;2022-11-06T10:21:42;147533.22;;;13.64;100.00
6938;BME280;40040;42.706;23.372;2022-11-06T10:24:20;147579.03;;;13.82;100.00
6938;BME280;40040;42.706;23.372;2022-11-06T10:26:51;147659.41;;;14.15;100.00
6938;BME280;40040;42.706;23.372;2022-11-06T10:29:41;147671.78;;;14.20;100.00
6938;BME280;40040;42.706;23.372;2022-11-06T10:32:47;147678.00;;;14.22;100.00
6938;BME280;40040;42.706;23.372;2022-11-06T10:35:21;147690.41;;;14.27;100.00
6938;BME280;40040;42.706;23.372;2022-11-06T10:37:52;147684.16;;;14.25;100.00
6938;BME280;40040;42.706;23.372;2022-11-06T10:40:24;147679.19;;;14.23;100.00
6938;BME280;40040;42.706;23.372;2022-11-06T10:42:57;147553.06;;;13.72;100.00
6938;BME280;40040;42.706;23.372;2022-11-06T10:45:27;147614.88;;;13.97;100.00
6938;BME280;40040;42.706;23.372;2022-11-06T10:48:00;147642.09;;;14.08;100.00
6938;BME280;40040;42.706;23.372;2022-11-06T10:50:37;147635.88;;;14.05;100.00
6938;BME280;40040;42.706;23.372;2022-11-06T10:53:08;147612.41;;;13.96;100.00
6938;BME280;40040;42.706;23.372;2022-11-06T10:56:14;147600.03;;;13.91;100.00
6938;BME280;40040;42.706;23.372;2022-11-06T10:58:45;147595.09;;;13.89;100.00
6938;BME280;40040;42.706;23.372;2022-11-06T11:01:13;147530.78;;;13.63;100.00
6938;BME280;40040;42.706;23.372;2022-11-06T11:03:42;147592.63;;;13.88;100.00
6938;BME280;40040;42.706;23.372;2022-11-06T11:06:10;147579.03;;;13.82;100.00
6938;BME280;40040;42.706;23.372;2022-11-06T11:08:40;147556.75;;;13.73;100.00
6938;BME280;40040;42.706;23.372;2022-11-06T11:11:25;147565.41;;;13.77;100.00
6938;BME280;40040;42.706;23.372;2022-11-06T11:14:13;147530.78;;;13.63;100.00
6938;BME280;40040;42.706;23.372;2022-11-06T11:16:43;147545.59;;;13.69;100.00
6938;BME280;40040;42.706;23.372;2022-11-06T11:19:21;147525.81;;;13.61;100.00
6938;BME280;40040;42.706;23.372;2022-11-06T11:21:55;147436.81;;;13.24;100.00
6938;BME280;40040;42.706;23.372;2022-11-06T11:24:23;147499.84;;;13.50;100.00
6938;BME280;40040;42.706;23.372;2022-11-06T11:26:53;147525.81;;;13.61;100.00
6938;BME280;40040;42.706;23.372;2022-11-06T11:29:23;147527.06;;;13.61;100.00
6938;BME280;40040;42.706;23.372;2022-11-06T11:31:54;147419.50;;;13.17;100.00
6938;BME280;40040;42.706;23.372;2022-11-06T11:34:23;147515.91;;;13.56;100.00
6938;BME280;40040;42.706;23.372;2022-11-06T11:36:55;147512.22;;;13.55;100.00
6938;BME280;40040;42.706;23.372;2022-11-06T11:39:26;147483.78;;;13.43;100.00
6938;BME280;40040;42.706;23.372;2022-11-06T11:42:25;147444.22;;;13.27;100.00
6938;BME280;40040;42.706;23.372;2022-11-06T11:45:16;147529.53;;;13.62;100.00
6938;BME280;40040;42.706;23.372;2022-11-06T11:47:45;147532.03;;;13.63;100.00
6938;BME280;40040;42.706;23.372;2022-11-06T11:50:26;147522.13;;;13.59;100.00
6938;BME280;40040;42.706;23.372;2022-11-06T11:52:57;147507.25;;;13.53;100.00
6938;BME280;40040;42.706;23.372;2022-11-06T11:55:26;147496.16;;;13.48;100.00
6938;BME280;40040;42.706;23.372;2022-11-06T11:57:57;147508.50;;;13.53;100.00
6938;BME280;40040;42.706;23.372;2022-11-06T12:00:29;147452.88;;;13.31;100.00
6938;BME280;40040;42.706;23.372;2022-11-06T12:02:59;147435.56;;;13.24;100.00
6938;BME280;40040;42.706;23.372;2022-11-06T12:05:31;147546.84;;;13.69;100.00
6938;BME280;40040;42.706;23.372;2022-11-06T12:07:59;147501.09;;;13.50;100.00
6938;BME280;40040;42.706;23.372;2022-11-06T12:10:28;147569.13;;;13.78;100.00
6938;BME280;40040;42.706;23.372;2022-11-06T12:13:02;147566.66;;;13.77;100.00
6938;BME280;40040;42.706;23.372;2022-11-06T12:15:33;147525.81;;;13.61;100.00
6938;BME280;40040;42.706;23.372;2022-11-06T12:18:05;147590.13;;;13.87;100.00
6938;BME280;40040;42.706;23.372;2022-11-06T12:20:39;147597.53;;;13.90;100.00
6938;BME280;40040;42.706;23.372;2022-11-06T12:23:13;147603.75;;;13.92;100.00
6938;BME280;40040;42.706;23.372;2022-11-06T12:25:43;147533.22;;;13.64;100.00
6938;BME280;40040;42.706;23.372;2022-11-06T12:28:15;147587.69;;;13.86;100.00
6938;BME280;40040;42.706;23.372;2022-11-06T12:30:56;147602.50;;;13.92;100.00
6938;BME280;40040;42.706;23.372;2022-11-06T12:33:26;147540.69;;;13.67;100.00
6938;BME280;40040;42.706;23.372;2022-11-06T12:35:58;147595.09;;;13.89;100.00
6938;BME280;40040;42.706;23.372;2022-11-06T12:38:30;147527.06;;;13.61;100.00
6938;BME280;40040;42.706;23.372;2022-11-06T12:41:03;147609.91;;;13.95;100.00
6938;BME280;40040;42.706;23.372;2022-11-06T12:43:40;147605.00;;;13.93;100.00
6938;BME280;40040;42.706;23.372;2022-11-06T12:46:24;147533.22;;;13.64;100.00
6938;BME280;40040;42.706;23.372;2022-11-06T12:49:19;147545.59;;;13.69;100.00
6938;BME280;40040;42.706;23.372;2022-11-06T12:51:59;147562.91;;;13.76;100.00
6938;BME280;40040;42.706;23.372;2022-11-06T12:54:41;147623.53;;;14.00;100.00
6938;BME280;40040;42.706;23.372;2022-11-06T12:57:17;147569.13;;;13.78;100.00
6938;BME280;40040;42.706;23.372;2022-11-06T12:59:57;147623.53;;;14.00;100.00